sensor_id;sensor_type;location;lat;lon;timestamp;pressure;altitude;pressure_sealevel;temperature;humidity
38530;BME280;24301;54.332;48.386;2022-09-17T00:01:18;97767.81;;;12.89;94.75
38530;BME280;24301;54.332;48.386;2022-09-17T00:03:48;97756.69;;;12.82;95.46
38530;BME280;24301;54.332;48.386;2022-09-17T00:06:14;97758.25;;;12.86;95.73
38530;BME280;24301;54.332;48.386;2022-09-17T00:08:40;97750.47;;;12.83;96.23
38530;BME280;24301;54.332;48.386;2022-09-17T00:11:25;97747.69;;;12.86;96.32
38530;BME280;24301;54.332;48.386;2022-09-17T00:13:53;97741.97;;;12.76;96.95
38530;BME280;24301;54.332;48.386;2022-09-17T00:16:29;97747.25;;;12.76;97.02
38530;BME280;24301;54.332;48.386;2022-09-17T00:18:56;97748.22;;;12.74;97.27
38530;BME280;24301;54.332;48.386;2022-09-17T00:21:23;97753.72;;;12.69;96.71
38530;BME280;24301;54.332;48.386;2022-09-17T00:23:55;97751.19;;;12.66;96.72
38530;BME280;24301;54.332;48.386;2022-09-17T00:26:21;97750.47;;;12.62;97.09
38530;BME280;24301;54.332;48.386;2022-09-17T00:28:51;97754.06;;;12.60;97.52
38530;BME280;24301;54.332;48.386;2022-09-17T00:31:19;97755.88;;;12.59;97.69
38530;BME280;24301;54.332;48.386;2022-09-17T00:33:45;97754.94;;;12.60;98.15
38530;BME280;24301;54.332;48.386;2022-09-17T00:36:11;97748.88;;;12.58;98.63
38530;BME280;24301;54.332;48.386;2022-09-17T00:38:37;97761.94;;;12.61;98.20
38530;BME280;24301;54.332;48.386;2022-09-17T00:41:03;97750.72;;;12.56;98.41
38530;BME280;24301;54.332;48.386;2022-09-17T00:43:45;97754.94;;;12.60;98.85
38530;BME280;24301;54.332;48.386;2022-09-17T00:46:35;97751.38;;;12.61;98.91
38530;BME280;24301;54.332;48.386;2022-09-17T00:49:23;97751.19;;;12.66;99.26
38530;BME280;24301;54.332;48.386;2022-09-17T00:51:56;97748.63;;;12.64;99.06
38530;BME280;24301;54.332;48.386;2022-09-17T00:54:24;97745.97;;;12.64;99.44
38530;BME280;24301;54.332;48.386;2022-09-17T00:56:51;97739.91;;;12.62;99.30
38530;BME280;24301;54.332;48.386;2022-09-17T00:59:19;97743.16;;;12.69;99.65
38530;BME280;24301;54.332;48.386;2022-09-17T01:01:46;97730.03;;;12.68;99.87
38530;BME280;24301;54.332;48.386;2022-09-17T01:04:22;97727.41;;;12.68;99.61
38530;BME280;24301;54.332;48.386;2022-09-17T01:10:10;97729.91;;;12.71;99.76
38530;BME280;24301;54.332;48.386;2022-09-17T01:15:21;97724.72;;;12.69;99.78
38530;BME280;24301;54.332;48.386;2022-09-17T01:25:48;97724.63;;;12.71;100.00
38530;BME280;24301;54.332;48.386;2022-09-17T01:31:14;97720.41;;;12.67;100.00
38530;BME280;24301;54.332;48.386;2022-09-17T01:33:59;97719.56;;;12.66;100.00
38530;BME280;24301;54.332;48.386;2022-09-17T01:36:38;97724.91;;;12.64;100.00
38530;BME280;24301;54.332;48.386;2022-09-17T01:39:28;97733.47;;;12.70;100.00
38530;BME280;24301;54.332;48.386;2022-09-17T01:44:52;97730.44;;;12.79;100.00
38530;BME280;24301;54.332;48.386;2022-09-17T01:47:55;97725.22;;;12.77;100.00
38530;BME280;24301;54.332;48.386;2022-09-17T01:50:26;97720.94;;;12.75;100.00
38530;BME280;24301;54.332;48.386;2022-09-17T01:52:56;97729.53;;;12.80;100.00
38530;BME280;24301;54.332;48.386;2022-09-17T01:55:29;97715.56;;;12.78;100.00
38530;BME280;24301;54.332;48.386;2022-09-17T01:58:03;97721.34;;;12.86;100.00
38530;BME280;24301;54.332;48.386;2022-09-17T02:00:31;97724.03;;;12.85;100.00
38530;BME280;24301;54.332;48.386;2022-09-17T02:03:19;97727.44;;;12.87;100.00
38530;BME280;24301;54.332;48.386;2022-09-17T02:05:57;97718.75;;;12.85;100.00
38530;BME280;24301;54.332;48.386;2022-09-17T02:08:27;97715.41;;;12.81;100.00
38530;BME280;24301;54.332;48.386;2022-09-17T02:11:05;97704.09;;;12.79;100.00
38530;BME280;24301;54.332;48.386;2022-09-17T02:16:08;97702.09;;;12.84;100.00
38530;BME280;24301;54.332;48.386;2022-09-17T02:21:11;97699.38;;;12.86;100.00
38530;BME280;24301;54.332;48.386;2022-09-17T02:26:34;97689.06;;;12.81;100.00
38530;BME280;24301;54.332;48.386;2022-09-17T02:29:09;97696.53;;;12.90;100.00
38530;BME280;24301;54.332;48.386;2022-09-17T02:31:39;97693.13;;;12.88;100.00
38530;BME280;24301;54.332;48.386;2022-09-17T02:34:07;97677.25;;;12.90;100.00
38530;BME280;24301;54.332;48.386;2022-09-17T02:36:34;97680.31;;;13.00;100.00
38530;BME280;24301;54.332;48.386;2022-09-17T02:39:03;97677.66;;;13.00;100.00
38530;BME280;24301;54.332;48.386;2022-09-17T02:41:42;97680.31;;;13.00;100.00
38530;BME280;24301;54.332;48.386;2022-09-17T02:49:39;97668.19;;;12.96;100.00
38530;BME280;24301;54.332;48.386;2022-09-17T02:57:26;97680.44;;;12.97;100.00
38530;BME280;24301;54.332;48.386;2022-09-17T03:00:08;97683.06;;;12.97;100.00
38530;BME280;24301;54.332;48.386;2022-09-17T03:05:09;97695.88;;;13.06;100.00
38530;BME280;24301;54.332;48.386;2022-09-17T03:07:36;97680.88;;;13.06;100.00
38530;BME280;24301;54.332;48.386;2022-09-17T03:10:02;97678.19;;;13.08;100.00
38530;BME280;24301;54.332;48.386;2022-09-17T03:12:29;97679.63;;;13.15;100.00
38530;BME280;24301;54.332;48.386;2022-09-17T03:14:55;97671.56;;;13.18;100.00
38530;BME280;24301;54.332;48.386;2022-09-17T03:17:21;97670.63;;;13.19;100.00
38530;BME280;24301;54.332;48.386;2022-09-17T03:19:47;97674.97;;;13.20;100.00
38530;BME280;24301;54.332;48.386;2022-09-17T03:22:13;97668.78;;;13.21;100.00
38530;BME280;24301;54.332;48.386;2022-09-17T03:24:39;97668.56;;;13.26;100.00
38530;BME280;24301;54.332;48.386;2022-09-17T03:27:05;97669.38;;;13.28;100.00
38530;BME280;24301;54.332;48.386;2022-09-17T03:29:32;97667.59;;;13.29;100.00
38530;BME280;24301;54.332;48.386;2022-09-17T03:31:58;97674.59;;;13.30;100.00
38530;BME280;24301;54.332;48.386;2022-09-17T03:34:24;97675.22;;;13.35;100.00
38530;BME280;24301;54.332;48.386;2022-09-17T03:36:50;97665.34;;;13.39;100.00
38530;BME280;24301;54.332;48.386;2022-09-17T03:39:16;97660.31;;;13.34;100.00
38530;BME280;24301;54.332;48.386;2022-09-17T03:41:42;97666.06;;;13.42;100.00
38530;BME280;24301;54.332;48.386;2022-09-17T03:44:08;97657.31;;;13.42;100.00
38530;BME280;24301;54.332;48.386;2022-09-17T03:46:36;97670.41;;;13.45;100.00
38530;BME280;24301;54.332;48.386;2022-09-17T03:49:02;97665.13;;;13.45;100.00
38530;BME280;24301;54.332;48.386;2022-09-17T03:51:28;97665.81;;;13.48;100.00
38530;BME280;24301;54.332;48.386;2022-09-17T03:53:55;97651.00;;;13.46;100.00
38530;BME280;24301;54.332;48.386;2022-09-17T03:56:21;97657.13;;;13.46;100.00
38530;BME280;24301;54.332;48.386;2022-09-17T03:58:47;97655.34;;;13.47;100.00
38530;BME280;24301;54.332;48.386;2022-09-17T04:01:13;97649.78;;;13.53;100.00
38530;BME280;24301;54.332;48.386;2022-09-17T04:03:39;97648.28;;;13.47;100.00
38530;BME280;24301;54.332;48.386;2022-09-17T04:06:05;97641.78;;;13.55;100.00
38530;BME280;24301;54.332;48.386;2022-09-17T04:08:31;97645.06;;;13.60;100.00
38530;BME280;24301;54.332;48.386;2022-09-17T04:10:58;97644.13;;;13.61;100.00
38530;BME280;24301;54.332;48.386;2022-09-17T04:13:24;97636.94;;;13.64;100.00
38530;BME280;24301;54.332;48.386;2022-09-17T04:15:50;97664.94;;;13.67;100.00
38530;BME280;24301;54.332;48.386;2022-09-17T04:18:16;97649.09;;;13.67;100.00
38530;BME280;24301;54.332;48.386;2022-09-17T04:20:42;97643.97;;;13.64;100.00
38530;BME280;24301;54.332;48.386;2022-09-17T04:23:10;97654.38;;;13.67;100.00
38530;BME280;24301;54.332;48.386;2022-09-17T04:25:37;97644.56;;;13.71;100.00
38530;BME280;24301;54.332;48.386;2022-09-17T04:28:03;97636.69;;;13.69;100.00
38530;BME280;24301;54.332;48.386;2022-09-17T04:30:29;97646.09;;;13.75;100.00
38530;BME280;24301;54.332;48.386;2022-09-17T04:32:55;97652.16;;;13.77;100.00
38530;BME280;24301;54.332;48.386;2022-09-17T04:35:21;97656.38;;;13.81;100.00
38530;BME280;24301;54.332;48.386;2022-09-17T04:37:57;97655.38;;;13.84;100.00
38530;BME280;24301;54.332;48.386;2022-09-17T04:40:24;97660.88;;;13.79;100.00
38530;BME280;24301;54.332;48.386;2022-09-17T04:42:57;97673.84;;;13.84;100.00
38530;BME280;24301;54.332;48.386;2022-09-17T04:45:29;97670.28;;;13.85;100.00
38530;BME280;24301;54.332;48.386;2022-09-17T04:47:57;97664.69;;;13.91;100.00
38530;BME280;24301;54.332;48.386;2022-09-17T04:50:23;97664.78;;;14.07;100.00
38530;BME280;24301;54.332;48.386;2022-09-17T04:52:49;97664.78;;;14.07;100.00
38530;BME280;24301;54.332;48.386;2022-09-17T04:55:21;97670.16;;;14.05;100.00
38530;BME280;24301;54.332;48.386;2022-09-17T04:57:48;97674.91;;;13.99;100.00
38530;BME280;24301;54.332;48.386;2022-09-17T05:00:15;97673.75;;;14.04;100.00
38530;BME280;24301;54.332;48.386;2022-09-17T05:02:53;97673.34;;;14.12;100.00
38530;BME280;24301;54.332;48.386;2022-09-17T05:05:19;97665.50;;;14.11;100.00
38530;BME280;24301;54.332;48.386;2022-09-17T05:07:45;97666.13;;;14.16;100.00
38530;BME280;24301;54.332;48.386;2022-09-17T05:10:13;97672.22;;;14.35;100.00
38530;BME280;24301;54.332;48.386;2022-09-17T05:12:39;97677.63;;;14.50;100.00
38530;BME280;24301;54.332;48.386;2022-09-17T05:15:06;97666.47;;;14.80;100.00
38530;BME280;24301;54.332;48.386;2022-09-17T05:17:32;97673.22;;;15.02;100.00
38530;BME280;24301;54.332;48.386;2022-09-17T05:19:58;97668.03;;;15.00;96.78
38530;BME280;24301;54.332;48.386;2022-09-17T05:22:24;97667.34;;;14.97;95.99
38530;BME280;24301;54.332;48.386;2022-09-17T05:24:49;97651.47;;;14.97;95.66
38530;BME280;24301;54.332;48.386;2022-09-17T05:27:15;97662.91;;;15.31;95.01
38530;BME280;24301;54.332;48.386;2022-09-17T05:29:41;97666.25;;;15.66;94.14
38530;BME280;24301;54.332;48.386;2022-09-17T05:32:07;97672.38;;;15.35;90.94
38530;BME280;24301;54.332;48.386;2022-09-17T05:34:33;97655.25;;;15.08;92.72
38530;BME280;24301;54.332;48.386;2022-09-17T05:36:59;97662.94;;;15.13;93.84
38530;BME280;24301;54.332;48.386;2022-09-17T05:39:24;97664.81;;;15.11;93.39
38530;BME280;24301;54.332;48.386;2022-09-17T05:41:51;97666.69;;;15.09;93.30
38530;BME280;24301;54.332;48.386;2022-09-17T05:44:18;97668.75;;;15.04;93.25
38530;BME280;24301;54.332;48.386;2022-09-17T05:46:45;97668.47;;;15.08;93.82
38530;BME280;24301;54.332;48.386;2022-09-17T05:49:11;97681.34;;;14.99;93.71
38530;BME280;24301;54.332;48.386;2022-09-17T05:51:37;97678.75;;;14.81;94.05
38530;BME280;24301;54.332;48.386;2022-09-17T05:54:03;97675.84;;;14.68;95.36
38530;BME280;24301;54.332;48.386;2022-09-17T05:56:29;97667.53;;;14.76;96.24
38530;BME280;24301;54.332;48.386;2022-09-17T05:58:55;97666.81;;;14.90;96.06
38530;BME280;24301;54.332;48.386;2022-09-17T06:01:22;97670.34;;;15.06;96.00
38530;BME280;24301;54.332;48.386;2022-09-17T06:03:48;97681.91;;;15.21;95.32
38530;BME280;24301;54.332;48.386;2022-09-17T06:06:14;97676.44;;;15.25;94.76
38530;BME280;24301;54.332;48.386;2022-09-17T06:08:40;97679.63;;;15.31;94.25
38530;BME280;24301;54.332;48.386;2022-09-17T06:11:07;97693.03;;;15.28;93.91
38530;BME280;24301;54.332;48.386;2022-09-17T06:13:33;97683.31;;;15.29;94.05
38530;BME280;24301;54.332;48.386;2022-09-17T06:16:01;97680.66;;;15.29;94.10
38530;BME280;24301;54.332;48.386;2022-09-17T06:18:28;97697.78;;;15.21;93.87
38530;BME280;24301;54.332;48.386;2022-09-17T06:20:56;97683.25;;;15.13;93.89
38530;BME280;24301;54.332;48.386;2022-09-17T06:23:23;97687.53;;;15.15;94.50
38530;BME280;24301;54.332;48.386;2022-09-17T06:25:58;97687.97;;;15.23;94.50
38530;BME280;24301;54.332;48.386;2022-09-17T06:28:25;97678.88;;;15.12;94.25
38530;BME280;24301;54.332;48.386;2022-09-17T06:30:51;97674.63;;;15.09;94.31
38530;BME280;24301;54.332;48.386;2022-09-17T06:33:22;97684.28;;;15.10;94.46
38530;BME280;24301;54.332;48.386;2022-09-17T06:35:55;97689.25;;;15.16;94.77
38530;BME280;24301;54.332;48.386;2022-09-17T06:38:22;97689.94;;;15.20;94.84
38530;BME280;24301;54.332;48.386;2022-09-17T06:40:51;97690.44;;;15.27;94.86
38530;BME280;24301;54.332;48.386;2022-09-17T06:43:17;97693.44;;;15.36;94.35
38530;BME280;24301;54.332;48.386;2022-09-17T06:45:43;97690.16;;;15.49;94.18
38530;BME280;24301;54.332;48.386;2022-09-17T06:48:15;97673.50;;;15.63;93.80
38530;BME280;24301;54.332;48.386;2022-09-17T06:50:41;97691.50;;;15.72;92.65
38530;BME280;24301;54.332;48.386;2022-09-17T06:53:08;97690.38;;;15.76;92.10
38530;BME280;24301;54.332;48.386;2022-09-17T06:55:34;97695.63;;;15.78;91.79
38530;BME280;24301;54.332;48.386;2022-09-17T06:57:59;97689.97;;;15.68;91.19
38530;BME280;24301;54.332;48.386;2022-09-17T07:00:26;97692.97;;;15.62;91.61
38530;BME280;24301;54.332;48.386;2022-09-17T07:02:59;97689.72;;;15.57;91.94
38530;BME280;24301;54.332;48.386;2022-09-17T07:05:25;97703.72;;;15.59;92.16
38530;BME280;24301;54.332;48.386;2022-09-17T07:07:52;97708.84;;;15.62;92.28
38530;BME280;24301;54.332;48.386;2022-09-17T07:10:19;97712.88;;;15.69;92.56
38530;BME280;24301;54.332;48.386;2022-09-17T07:12:45;97702.78;;;15.76;92.46
38530;BME280;24301;54.332;48.386;2022-09-17T07:15:11;97701.59;;;15.82;91.81
38530;BME280;24301;54.332;48.386;2022-09-17T07:17:41;97692.09;;;15.77;91.10
38530;BME280;24301;54.332;48.386;2022-09-17T07:20:09;97707.84;;;15.80;89.92
38530;BME280;24301;54.332;48.386;2022-09-17T07:22:36;97707.75;;;15.82;89.81
38530;BME280;24301;54.332;48.386;2022-09-17T07:25:02;97705.03;;;15.84;89.54
38530;BME280;24301;54.332;48.386;2022-09-17T07:27:30;97702.56;;;15.80;89.09
38530;BME280;24301;54.332;48.386;2022-09-17T07:29:56;97711.75;;;15.73;88.77
38530;BME280;24301;54.332;48.386;2022-09-17T07:32:23;97695.09;;;15.71;88.86
38530;BME280;24301;54.332;48.386;2022-09-17T07:34:49;97705.34;;;15.77;88.81
38530;BME280;24301;54.332;48.386;2022-09-17T07:37:15;97707.16;;;15.77;88.57
38530;BME280;24301;54.332;48.386;2022-09-17T07:39:41;97688.84;;;15.72;88.52
38530;BME280;24301;54.332;48.386;2022-09-17T07:42:09;97711.50;;;15.78;88.35
38530;BME280;24301;54.332;48.386;2022-09-17T07:44:35;97713.38;;;15.76;88.32
38530;BME280;24301;54.332;48.386;2022-09-17T07:47:02;97715.34;;;15.72;88.19
38530;BME280;24301;54.332;48.386;2022-09-17T07:49:28;97719.88;;;15.70;88.49
38530;BME280;24301;54.332;48.386;2022-09-17T07:51:53;97719.03;;;15.70;88.43
38530;BME280;24301;54.332;48.386;2022-09-17T07:54:19;97716.47;;;15.68;88.59
38530;BME280;24301;54.332;48.386;2022-09-17T07:56:45;97728.84;;;15.68;88.57
38530;BME280;24301;54.332;48.386;2022-09-17T07:59:11;97712.69;;;15.72;88.66
38530;BME280;24301;54.332;48.386;2022-09-17T08:01:37;97722.28;;;15.75;88.48
38530;BME280;24301;54.332;48.386;2022-09-17T08:04:04;97714.41;;;15.73;88.51
38530;BME280;24301;54.332;48.386;2022-09-17T08:06:30;97730.28;;;15.73;88.58
38530;BME280;24301;54.332;48.386;2022-09-17T08:08:58;97728.41;;;15.75;88.57
38530;BME280;24301;54.332;48.386;2022-09-17T08:11:26;97725.00;;;15.73;88.50
38530;BME280;24301;54.332;48.386;2022-09-17T08:13:53;97713.03;;;15.66;88.67
38530;BME280;24301;54.332;48.386;2022-09-17T08:16:20;97728.75;;;15.69;88.86
38530;BME280;24301;54.332;48.386;2022-09-17T08:18:47;97722.09;;;15.62;89.27
38530;BME280;24301;54.332;48.386;2022-09-17T08:21:16;97729.44;;;15.57;89.53
38530;BME280;24301;54.332;48.386;2022-09-17T08:23:43;97726.03;;;15.55;89.91
38530;BME280;24301;54.332;48.386;2022-09-17T08:26:14;97715.56;;;15.51;90.13
38530;BME280;24301;54.332;48.386;2022-09-17T08:28:45;97722.34;;;15.57;90.52
38530;BME280;24301;54.332;48.386;2022-09-17T08:31:27;97725.34;;;15.67;90.66
38530;BME280;24301;54.332;48.386;2022-09-17T08:33:54;97717.41;;;15.67;90.57
38530;BME280;24301;54.332;48.386;2022-09-17T08:36:20;97728.59;;;15.72;90.51
38530;BME280;24301;54.332;48.386;2022-09-17T08:38:54;97727.56;;;15.75;90.53
38530;BME280;24301;54.332;48.386;2022-09-17T08:46:49;97738.66;;;15.65;91.43
38530;BME280;24301;54.332;48.386;2022-09-17T08:49:49;97741.47;;;15.62;91.68
38530;BME280;24301;54.332;48.386;2022-09-17T09:00:32;97744.28;;;15.59;92.11
38530;BME280;24301;54.332;48.386;2022-09-17T09:03:43;97740.03;;;15.57;92.53
38530;BME280;24301;54.332;48.386;2022-09-17T09:06:14;97742.06;;;15.51;92.54
38530;BME280;24301;54.332;48.386;2022-09-17T09:08:58;97754.22;;;15.56;92.87
38530;BME280;24301;54.332;48.386;2022-09-17T09:11:29;97754.88;;;15.59;92.96
38530;BME280;24301;54.332;48.386;2022-09-17T09:17:11;97752.06;;;15.62;93.01
38530;BME280;24301;54.332;48.386;2022-09-17T09:19:42;97756.41;;;15.63;92.96
38530;BME280;24301;54.332;48.386;2022-09-17T09:27:26;97751.31;;;15.76;92.65
38530;BME280;24301;54.332;48.386;2022-09-17T09:30:04;97761.22;;;15.73;92.26
38530;BME280;24301;54.332;48.386;2022-09-17T09:32:50;97760.53;;;15.69;92.58
38530;BME280;24301;54.332;48.386;2022-09-17T09:35:22;97764.22;;;15.66;92.81
38530;BME280;24301;54.332;48.386;2022-09-17T09:38:05;97768.47;;;15.69;93.13
38530;BME280;24301;54.332;48.386;2022-09-17T09:40:45;97761.13;;;15.74;92.73
38530;BME280;24301;54.332;48.386;2022-09-17T09:43:18;97756.78;;;15.73;92.72
38530;BME280;24301;54.332;48.386;2022-09-17T09:56:59;97764.00;;;16.03;91.35
38530;BME280;24301;54.332;48.386;2022-09-17T09:59:29;97771.63;;;16.09;91.54
38530;BME280;24301;54.332;48.386;2022-09-17T10:01:55;97776.50;;;16.17;91.23
38530;BME280;24301;54.332;48.386;2022-09-17T10:04:26;97784.16;;;16.22;90.84
38530;BME280;24301;54.332;48.386;2022-09-17T10:06:58;97786.63;;;16.25;90.58
38530;BME280;24301;54.332;48.386;2022-09-17T10:09:28;97776.81;;;16.27;90.45
38530;BME280;24301;54.332;48.386;2022-09-17T10:12:04;97797.31;;;16.40;90.12
38530;BME280;24301;54.332;48.386;2022-09-17T10:14:33;97794.06;;;16.50;90.02
38530;BME280;24301;54.332;48.386;2022-09-17T10:17:22;97791.56;;;16.63;88.82
38530;BME280;24301;54.332;48.386;2022-09-17T10:22:36;97789.66;;;16.65;88.49
38530;BME280;24301;54.332;48.386;2022-09-17T10:25:06;97793.66;;;16.73;88.07
38530;BME280;24301;54.332;48.386;2022-09-17T10:27:43;97801.81;;;16.70;87.57
38530;BME280;24301;54.332;48.386;2022-09-17T10:30:28;97800.34;;;16.64;87.32
38530;BME280;24301;54.332;48.386;2022-09-17T10:33:30;97798.31;;;16.69;87.04
38530;BME280;24301;54.332;48.386;2022-09-17T10:36:02;97793.66;;;16.73;87.38
38530;BME280;24301;54.332;48.386;2022-09-17T10:38:41;97790.56;;;16.80;87.27
38530;BME280;24301;54.332;48.386;2022-09-17T10:41:13;97809.91;;;16.83;86.77
38530;BME280;24301;54.332;48.386;2022-09-17T10:43:40;97812.28;;;16.87;86.81
38530;BME280;24301;54.332;48.386;2022-09-17T10:46:13;97811.59;;;17.00;86.56
38530;BME280;24301;54.332;48.386;2022-09-17T10:49:10;97806.81;;;17.21;85.87
38530;BME280;24301;54.332;48.386;2022-09-17T10:51:37;97808.41;;;17.23;85.42
38530;BME280;24301;54.332;48.386;2022-09-17T10:56:41;97819.44;;;17.46;84.38
38530;BME280;24301;54.332;48.386;2022-09-17T10:59:44;97814.88;;;17.48;83.34
38530;BME280;24301;54.332;48.386;2022-09-17T11:08:19;97825.22;;;17.24;83.19
38530;BME280;24301;54.332;48.386;2022-09-17T11:11:05;97827.44;;;17.16;83.18
38530;BME280;24301;54.332;48.386;2022-09-17T11:35:00;97845.00;;;18.07;80.39
38530;BME280;24301;54.332;48.386;2022-09-17T11:39:59;97835.72;;;18.42;77.62
38530;BME280;24301;54.332;48.386;2022-09-17T11:42:41;97839.47;;;18.52;75.75
38530;BME280;24301;54.332;48.386;2022-09-17T11:45:18;97854.81;;;18.34;75.60
38530;BME280;24301;54.332;48.386;2022-09-17T11:48:00;97852.56;;;18.28;76.41
38530;BME280;24301;54.332;48.386;2022-09-17T11:50:58;97854.16;;;18.30;75.83
38530;BME280;24301;54.332;48.386;2022-09-17T11:53:52;97859.03;;;18.51;75.85
38530;BME280;24301;54.332;48.386;2022-09-17T11:59:24;97864.25;;;18.80;74.15
38530;BME280;24301;54.332;48.386;2022-09-17T12:01:55;97862.09;;;18.59;73.50
38530;BME280;24301;54.332;48.386;2022-09-17T12:04:46;97873.09;;;18.53;72.21
38530;BME280;24301;54.332;48.386;2022-09-17T12:12:56;97895.44;;;18.50;71.40
38530;BME280;24301;54.332;48.386;2022-09-17T12:15:26;97895.19;;;18.41;70.45
38530;BME280;24301;54.332;48.386;2022-09-17T12:18:15;97882.44;;;18.31;70.19
38530;BME280;24301;54.332;48.386;2022-09-17T12:20:45;97904.16;;;18.11;70.38
38530;BME280;24301;54.332;48.386;2022-09-17T12:23:15;97908.19;;;17.87;70.54
38530;BME280;24301;54.332;48.386;2022-09-17T12:26:33;97912.25;;;17.64;69.93
38530;BME280;24301;54.332;48.386;2022-09-17T12:37:54;97919.19;;;17.81;70.77
38530;BME280;24301;54.332;48.386;2022-09-17T12:51:23;97937.50;;;18.00;70.12
38530;BME280;24301;54.332;48.386;2022-09-17T13:00:15;97946.59;;;17.67;71.35
38530;BME280;24301;54.332;48.386;2022-09-17T13:14:05;97961.59;;;17.68;71.89
38530;BME280;24301;54.332;48.386;2022-09-17T13:16:44;97962.06;;;17.75;72.00
38530;BME280;24301;54.332;48.386;2022-09-17T13:22:06;97969.28;;;17.73;72.31
38530;BME280;24301;54.332;48.386;2022-09-17T13:24:35;97984.03;;;17.62;72.37
38530;BME280;24301;54.332;48.386;2022-09-17T13:27:03;97984.59;;;17.53;72.78
38530;BME280;24301;54.332;48.386;2022-09-17T13:37:38;97988.75;;;17.27;74.26
38530;BME280;24301;54.332;48.386;2022-09-17T13:43:04;97976.84;;;17.34;74.28
38530;BME280;24301;54.332;48.386;2022-09-17T13:46:18;97991.66;;;17.38;74.29
38530;BME280;24301;54.332;48.386;2022-09-17T13:48:24;98007.84;;;17.33;74.42
38530;BME280;24301;54.332;48.386;2022-09-17T13:50:50;98007.25;;;17.28;74.75
38530;BME280;24301;54.332;48.386;2022-09-17T13:53:19;98010.28;;;17.22;74.98
38530;BME280;24301;54.332;48.386;2022-09-17T13:55:55;98006.34;;;17.13;75.21
38530;BME280;24301;54.332;48.386;2022-09-17T13:58:29;98009.34;;;17.07;75.50
38530;BME280;24301;54.332;48.386;2022-09-17T14:01:04;98025.59;;;17.01;75.96
38530;BME280;24301;54.332;48.386;2022-09-17T14:21:42;98041.69;;;16.48;78.52
38530;BME280;24301;54.332;48.386;2022-09-17T14:24:21;98039.97;;;16.47;78.46
38530;BME280;24301;54.332;48.386;2022-09-17T14:29:34;98037.88;;;16.36;78.41
38530;BME280;24301;54.332;48.386;2022-09-17T14:32:15;98041.81;;;16.29;78.66
38530;BME280;24301;54.332;48.386;2022-09-17T14:34:41;98042.22;;;16.21;78.88
38530;BME280;24301;54.332;48.386;2022-09-17T14:37:12;98045.97;;;16.17;79.22
38530;BME280;24301;54.332;48.386;2022-09-17T14:39:39;98043.88;;;16.06;79.23
38530;BME280;24301;54.332;48.386;2022-09-17T14:42:13;98057.28;;;16.03;79.60
38530;BME280;24301;54.332;48.386;2022-09-17T14:44:53;98059.47;;;15.94;79.78
38530;BME280;24301;54.332;48.386;2022-09-17T14:47:20;98055.53;;;15.84;79.97
38530;BME280;24301;54.332;48.386;2022-09-17T14:49:48;98060.25;;;15.77;80.07
38530;BME280;24301;54.332;48.386;2022-09-17T14:52:30;98055.28;;;15.71;80.49
38530;BME280;24301;54.332;48.386;2022-09-17T14:55:23;98067.19;;;15.62;80.47
38530;BME280;24301;54.332;48.386;2022-09-17T14:57:57;98061.50;;;15.52;80.36
38530;BME280;24301;54.332;48.386;2022-09-17T15:00:25;98054.88;;;15.44;80.32
38530;BME280;24301;54.332;48.386;2022-09-17T15:02:56;98059.53;;;15.38;80.40
38530;BME280;24301;54.332;48.386;2022-09-17T15:05:34;98068.63;;;15.33;80.69
38530;BME280;24301;54.332;48.386;2022-09-17T15:08:13;98055.69;;;15.27;80.59
38530;BME280;24301;54.332;48.386;2022-09-17T15:11:01;98067.34;;;15.22;80.75
38530;BME280;24301;54.332;48.386;2022-09-17T15:13:30;98072.16;;;15.14;80.72
38530;BME280;24301;54.332;48.386;2022-09-17T15:16:04;98078.59;;;15.08;80.75
38530;BME280;24301;54.332;48.386;2022-09-17T15:18:36;98083.25;;;15.03;80.74
38530;BME280;24301;54.332;48.386;2022-09-17T15:21:09;98079.19;;;14.96;80.63
38530;BME280;24301;54.332;48.386;2022-09-17T15:23:40;98094.19;;;14.96;80.78
38530;BME280;24301;54.332;48.386;2022-09-17T15:26:07;98102.25;;;14.92;80.55
38530;BME280;24301;54.332;48.386;2022-09-17T15:28:37;98107.69;;;14.89;80.47
38530;BME280;24301;54.332;48.386;2022-09-17T15:31:05;98113.91;;;14.88;80.51
38530;BME280;24301;54.332;48.386;2022-09-17T15:33:32;98104.75;;;14.76;80.52
38530;BME280;24301;54.332;48.386;2022-09-17T15:36:22;98114.22;;;14.82;80.34
38530;BME280;24301;54.332;48.386;2022-09-17T15:38:50;98125.03;;;14.76;80.37
38530;BME280;24301;54.332;48.386;2022-09-17T15:41:34;98125.03;;;14.76;80.27
38530;BME280;24301;54.332;48.386;2022-09-17T15:44:14;98125.19;;;14.73;79.88
38530;BME280;24301;54.332;48.386;2022-09-17T15:46:42;98127.16;;;14.68;79.79
38530;BME280;24301;54.332;48.386;2022-09-17T15:49:52;98139.59;;;14.65;79.64
38530;BME280;24301;54.332;48.386;2022-09-17T15:52:34;98139.00;;;14.59;79.75
38530;BME280;24301;54.332;48.386;2022-09-17T15:55:01;98142.69;;;14.55;79.98
38530;BME280;24301;54.332;48.386;2022-09-17T15:57:28;98148.13;;;14.51;79.95
38530;BME280;24301;54.332;48.386;2022-09-17T15:59:55;98149.06;;;14.50;79.88
38530;BME280;24301;54.332;48.386;2022-09-17T16:02:31;98147.53;;;14.45;79.77
38530;BME280;24301;54.332;48.386;2022-09-17T16:07:46;98167.97;;;14.41;79.85
38530;BME280;24301;54.332;48.386;2022-09-17T16:10:13;98187.50;;;14.37;80.20
38530;BME280;24301;54.332;48.386;2022-09-17T16:12:42;98179.84;;;14.31;80.22
38530;BME280;24301;54.332;48.386;2022-09-17T16:15:09;98192.22;;;14.30;80.40
38530;BME280;24301;54.332;48.386;2022-09-17T16:17:46;98190.50;;;14.29;80.58
38530;BME280;24301;54.332;48.386;2022-09-17T16:20:23;98195.88;;;14.26;80.69
38530;BME280;24301;54.332;48.386;2022-09-17T16:22:50;98200.44;;;14.22;80.83